createdAt,value
2023-06-22T00:00:56.861Z,581.00
2023-06-22T00:01:56.805Z,582.00
2023-06-22T00:02:56.913Z,583.00
2023-06-22T00:03:56.823Z,584.00
2023-06-22T00:04:56.784Z,584.00
2023-06-22T00:05:56.777Z,583.00
2023-06-22T00:06:56.777Z,585.00
2023-06-22T00:07:56.770Z,582.00
2023-06-22T00:08:56.760Z,580.00
2023-06-22T00:09:56.756Z,581.00
2023-06-22T00:10:56.754Z,579.00
2023-06-22T00:11:56.804Z,581.00
2023-06-22T00:12:56.831Z,582.00
2023-06-22T00:13:56.904Z,582.00
2023-06-22T00:14:56.927Z,582.00
2023-06-22T00:15:56.937Z,580.00
2023-06-22T00:16:56.968Z,577.00
2023-06-22T00:17:57.088Z,578.00
2023-06-22T00:18:57.003Z,577.00
2023-06-22T00:19:57.050Z,575.00
2023-06-22T00:20:57.061Z,573.00
2023-06-22T00:21:57.074Z,572.00
2023-06-22T00:22:57.092Z,574.00
2023-06-22T00:23:57.120Z,576.00
2023-06-22T00:24:57.145Z,578.00
2023-06-22T00:25:57.174Z,579.00
2023-06-22T00:26:57.211Z,580.00
2023-06-22T00:27:57.222Z,581.00
2023-06-22T00:28:57.252Z,581.00
2023-06-22T00:29:57.298Z,580.00
2023-06-22T00:30:57.329Z,581.00
2023-06-22T00:31:57.345Z,578.00
2023-06-22T00:32:57.412Z,577.00
2023-06-22T00:33:57.398Z,575.00
2023-06-22T00:34:57.412Z,575.00
2023-06-22T00:35:57.443Z,575.00
2023-06-22T00:36:57.455Z,573.00
2023-06-22T00:37:57.480Z,572.00
2023-06-22T00:38:57.489Z,572.00
2023-06-22T00:39:57.526Z,574.00
2023-06-22T00:40:57.554Z,575.00
2023-06-22T00:41:57.575Z,573.00
2023-06-22T00:42:57.607Z,572.00
2023-06-22T00:43:57.624Z,576.00
2023-06-22T00:44:57.645Z,576.00
2023-06-22T00:45:57.756Z,573.00
2023-06-22T00:46:57.687Z,570.00
2023-06-22T00:47:57.739Z,570.00
2023-06-22T00:48:57.715Z,569.00
2023-06-22T00:49:57.745Z,569.00
2023-06-22T00:50:57.768Z,569.00
2023-06-22T00:51:57.800Z,572.00
2023-06-22T00:52:57.824Z,571.00
2023-06-22T00:53:57.849Z,569.00
2023-06-22T00:54:57.881Z,570.00
2023-06-22T00:55:57.922Z,572.00
2023-06-22T00:56:57.947Z,571.00
2023-06-22T00:57:57.973Z,569.00
2023-06-22T00:58:57.962Z,568.00
2023-06-22T00:59:57.983Z,566.00
2023-06-22T01:00:58.015Z,567.00
2023-06-22T01:01:58.037Z,566.00
2023-06-22T01:02:58.097Z,566.00
2023-06-22T01:03:58.236Z,565.00
2023-06-22T01:04:58.081Z,565.00
2023-06-22T01:05:58.102Z,567.00
2023-06-22T01:06:58.128Z,566.00
2023-06-22T01:07:58.173Z,569.00
2023-06-22T01:08:58.209Z,570.00
2023-06-22T01:09:58.224Z,569.00
2023-06-22T01:10:58.270Z,570.00
2023-06-22T01:11:58.329Z,574.00
2023-06-22T01:12:58.341Z,576.00
2023-06-22T01:13:58.380Z,574.00
2023-06-22T01:14:58.411Z,573.00
2023-06-22T01:15:58.472Z,573.00
2023-06-22T01:16:58.510Z,572.00
2023-06-22T01:17:58.611Z,572.00
2023-06-22T01:18:58.603Z,572.00
2023-06-22T01:19:58.626Z,572.00
2023-06-22T01:20:58.681Z,570.00
2023-06-22T01:21:58.703Z,572.00
2023-06-22T01:22:58.745Z,572.00
2023-06-22T01:23:58.771Z,571.00
2023-06-22T01:24:58.772Z,574.00
2023-06-22T01:25:58.786Z,572.00
2023-06-22T01:26:58.809Z,568.00
2023-06-22T01:27:58.843Z,569.00
2023-06-22T01:28:58.862Z,571.00
2023-06-22T01:29:58.889Z,572.00
2023-06-22T01:30:58.913Z,574.00
2023-06-22T01:31:59.005Z,575.00
2023-06-22T01:32:59.008Z,571.00
2023-06-22T01:33:58.997Z,571.00
2023-06-22T01:34:59.012Z,572.00
2023-06-22T01:35:59.021Z,573.00
2023-06-22T01:36:59.048Z,573.00
2023-06-22T01:37:59.069Z,573.00
2023-06-22T01:38:59.096Z,574.00
2023-06-22T01:39:59.155Z,576.00
2023-06-22T01:40:59.187Z,579.00
2023-06-22T01:41:59.199Z,578.00
2023-06-22T01:42:59.219Z,578.00
2023-06-22T01:43:59.266Z,576.00
2023-06-22T01:44:59.285Z,576.00
2023-06-22T01:45:59.310Z,576.00
2023-06-22T01:46:59.331Z,580.00
2023-06-22T01:47:59.379Z,579.00
2023-06-22T01:48:59.363Z,579.00
2023-06-22T01:49:59.500Z,577.00
2023-06-22T01:50:59.423Z,576.00
2023-06-22T01:51:59.424Z,576.00
2023-06-22T01:52:59.448Z,575.00
2023-06-22T01:53:59.454Z,575.00
2023-06-22T01:54:59.487Z,577.00
2023-06-22T01:55:59.467Z,576.00
2023-06-22T01:56:59.477Z,577.00
2023-06-22T01:57:59.488Z,578.00
2023-06-22T01:58:59.499Z,575.00
2023-06-22T01:59:59.501Z,575.00
2023-06-22T02:00:59.514Z,575.00
2023-06-22T02:01:59.581Z,575.00
2023-06-22T02:02:59.634Z,575.00
2023-06-22T02:03:59.754Z,576.00
2023-06-22T02:04:59.604Z,578.00
2023-06-22T02:05:59.669Z,578.00
2023-06-22T02:06:59.644Z,576.00
2023-06-22T02:07:59.643Z,577.00
2023-06-22T02:08:59.660Z,577.00
2023-06-22T02:09:59.663Z,577.00
2023-06-22T02:10:59.699Z,578.00
2023-06-22T02:11:59.705Z,577.00
2023-06-22T02:12:59.716Z,576.00
2023-06-22T02:13:59.736Z,577.00
2023-06-22T02:14:59.752Z,575.00
2023-06-22T02:15:59.769Z,577.00
2023-06-22T02:16:59.775Z,579.00
2023-06-22T02:17:59.828Z,578.00
2023-06-22T02:18:59.810Z,578.00
2023-06-22T02:19:59.816Z,579.00
2023-06-22T02:20:59.833Z,579.00
2023-06-22T02:21:59.856Z,579.00
2023-06-22T02:22:59.833Z,579.00
2023-06-22T02:23:59.831Z,577.00
2023-06-22T02:24:59.820Z,576.00
2023-06-22T02:25:59.831Z,574.00
2023-06-22T02:26:59.835Z,574.00
2023-06-22T02:27:59.841Z,574.00
2023-06-22T02:28:59.845Z,574.00
2023-06-22T02:29:59.846Z,575.00
2023-06-22T02:30:59.898Z,573.00
2023-06-22T02:31:59.876Z,572.00
2023-06-22T02:33:00.287Z,574.00
2023-06-22T02:33:59.880Z,574.00
2023-06-22T02:34:59.892Z,573.00
2023-06-22T02:35:59.904Z,573.00
2023-06-22T02:36:59.932Z,571.00
2023-06-22T02:37:59.946Z,572.00
2023-06-22T02:38:59.934Z,572.00
2023-06-22T02:39:59.932Z,572.00
2023-06-22T02:40:59.927Z,574.00
2023-06-22T02:41:59.938Z,576.00
2023-06-22T02:42:59.958Z,578.00
2023-06-22T02:43:59.979Z,581.00
2023-06-22T02:45:00.015Z,584.00
2023-06-22T02:45:59.992Z,582.00
2023-06-22T02:46:59.990Z,580.00
2023-06-22T02:48:00.062Z,580.00
2023-06-22T02:49:00.015Z,582.00
2023-06-22T02:50:00.093Z,581.00
2023-06-22T02:51:00.062Z,577.00
2023-06-22T02:52:00.071Z,574.00
2023-06-22T02:53:00.063Z,575.00
2023-06-22T02:54:00.106Z,574.00
2023-06-22T02:55:00.072Z,574.00
2023-06-22T02:56:00.085Z,574.00
2023-06-22T02:57:00.088Z,577.00
2023-06-22T02:58:00.098Z,577.00
2023-06-22T02:59:00.079Z,577.00
2023-06-22T03:00:00.131Z,572.00
2023-06-22T03:01:00.153Z,573.00
2023-06-22T03:02:00.114Z,576.00
2023-06-22T03:03:00.258Z,576.00
2023-06-22T03:04:00.209Z,573.00
2023-06-22T03:05:00.133Z,571.00
2023-06-22T03:06:00.126Z,567.00
2023-06-22T03:07:00.124Z,568.00
2023-06-22T03:08:00.142Z,567.00
2023-06-22T03:09:00.123Z,567.00
2023-06-22T03:10:01.105Z,569.00
2023-06-22T03:11:00.147Z,570.00
2023-06-22T03:12:00.161Z,574.00
2023-06-22T03:13:00.158Z,575.00
2023-06-22T03:14:00.140Z,576.00
2023-06-22T03:15:00.164Z,578.00
2023-06-22T03:16:00.170Z,578.00
2023-06-22T03:17:00.159Z,578.00
2023-06-22T03:18:01.178Z,575.00
2023-06-22T03:19:00.164Z,572.00
2023-06-22T03:20:00.171Z,571.00
2023-06-22T03:21:00.172Z,570.00
2023-06-22T03:22:00.177Z,573.00
2023-06-22T03:23:00.190Z,571.00
2023-06-22T03:24:00.188Z,571.00
2023-06-22T03:25:00.196Z,571.00
2023-06-22T03:26:00.229Z,573.00
2023-06-22T03:27:00.200Z,572.00
2023-06-22T03:28:00.199Z,569.00
2023-06-22T03:29:00.222Z,568.00
2023-06-22T03:30:00.233Z,567.00
2023-06-22T03:31:00.248Z,567.00
2023-06-22T03:32:00.345Z,568.00
2023-06-22T03:33:00.270Z,569.00
2023-06-22T03:34:00.276Z,569.00
2023-06-22T03:35:00.278Z,569.00
2023-06-22T03:36:00.289Z,572.00
2023-06-22T03:37:00.313Z,573.00
2023-06-22T03:38:00.317Z,572.00
2023-06-22T03:39:00.330Z,574.00
2023-06-22T03:40:00.344Z,576.00
2023-06-22T03:41:00.349Z,577.00
2023-06-22T03:42:00.404Z,578.00
2023-06-22T03:43:00.368Z,578.00
2023-06-22T03:44:00.366Z,577.00
2023-06-22T03:45:00.367Z,577.00
2023-06-22T03:46:00.418Z,577.00
2023-06-22T03:47:00.367Z,576.00
2023-06-22T03:48:00.418Z,576.00
2023-06-22T03:49:00.387Z,575.00
2023-06-22T03:50:00.382Z,576.00
2023-06-22T03:51:00.395Z,577.00
2023-06-22T03:52:00.400Z,579.00
2023-06-22T03:53:00.404Z,579.00
2023-06-22T03:54:00.440Z,577.00
2023-06-22T03:55:00.499Z,577.00
2023-06-22T03:56:00.484Z,579.00
2023-06-22T03:57:00.480Z,576.00
2023-06-22T03:58:00.518Z,575.00
2023-06-22T03:59:00.506Z,573.00
2023-06-22T04:00:00.544Z,574.00
2023-06-22T04:01:00.535Z,573.00
2023-06-22T04:02:00.564Z,572.00
2023-06-22T04:03:00.762Z,575.00
2023-06-22T04:04:00.657Z,575.00
2023-06-22T04:05:04.198Z,575.00
2023-06-22T04:06:00.547Z,573.00
2023-06-22T04:07:00.572Z,571.00
2023-06-22T04:08:00.534Z,568.00
2023-06-22T04:09:00.576Z,568.00
2023-06-22T04:10:00.677Z,569.00
2023-06-22T04:11:00.653Z,570.00
2023-06-22T04:12:00.697Z,572.00
2023-06-22T04:13:00.670Z,574.00
2023-06-22T04:14:00.803Z,573.00
2023-06-22T04:15:00.698Z,571.00
2023-06-22T04:16:00.687Z,573.00
2023-06-22T04:17:00.702Z,573.00
2023-06-22T04:18:00.754Z,575.00
2023-06-22T04:19:00.695Z,574.00
2023-06-22T04:20:00.707Z,576.00
2023-06-22T04:21:00.691Z,578.00
2023-06-22T04:22:00.694Z,580.00
2023-06-22T04:23:00.696Z,579.00
2023-06-22T04:24:00.677Z,578.00
2023-06-22T04:25:00.705Z,578.00
2023-06-22T04:26:00.732Z,576.00
2023-06-22T04:27:00.706Z,578.00
2023-06-22T04:28:00.717Z,579.00
2023-06-22T04:29:00.729Z,578.00
2023-06-22T04:30:00.744Z,576.00
2023-06-22T04:31:00.760Z,576.00
2023-06-22T04:32:00.780Z,574.00
2023-06-22T04:33:00.785Z,573.00
2023-06-22T04:34:00.742Z,572.00
2023-06-22T04:35:00.749Z,573.00
2023-06-22T04:36:00.768Z,570.00
2023-06-22T04:37:00.768Z,570.00
2023-06-22T04:38:00.820Z,571.00
2023-06-22T04:39:00.755Z,573.00
2023-06-22T04:40:00.795Z,573.00
2023-06-22T04:41:00.770Z,571.00
2023-06-22T04:42:00.764Z,570.00
2023-06-22T04:43:00.780Z,569.00
2023-06-22T04:44:00.784Z,570.00
2023-06-22T04:45:02.249Z,569.00
2023-06-22T04:46:00.798Z,570.00
2023-06-22T04:47:00.756Z,570.00
2023-06-22T04:48:00.792Z,571.00
2023-06-22T04:49:00.749Z,569.00
2023-06-22T04:50:00.749Z,570.00
2023-06-22T04:51:00.745Z,573.00
2023-06-22T04:52:00.726Z,574.00
2023-06-22T04:53:00.721Z,574.00
2023-06-22T04:54:00.712Z,576.00
2023-06-22T04:55:00.720Z,576.00
2023-06-22T04:56:00.736Z,576.00
2023-06-22T04:57:00.691Z,575.00
2023-06-22T04:58:00.699Z,576.00
2023-06-22T04:59:00.683Z,574.00
2023-06-22T05:00:00.666Z,574.00
2023-06-22T05:01:00.687Z,574.00
2023-06-22T05:02:00.700Z,575.00
2023-06-22T05:03:10.910Z,574.00
2023-06-22T05:04:00.886Z,574.00
2023-06-22T05:05:00.768Z,574.00
2023-06-22T05:06:00.641Z,575.00
2023-06-22T05:07:01.126Z,574.00
2023-06-22T05:08:00.628Z,573.00
2023-06-22T05:09:00.621Z,575.00
2023-06-22T05:10:00.608Z,576.00
2023-06-22T05:11:05.514Z,575.00
2023-06-22T05:12:00.613Z,575.00
2023-06-22T05:13:00.613Z,576.00
2023-06-22T05:14:00.591Z,575.00
2023-06-22T05:15:00.580Z,577.00
2023-06-22T05:16:00.574Z,578.00
2023-06-22T05:17:00.573Z,579.00
2023-06-22T05:18:00.663Z,577.00
2023-06-22T05:19:00.600Z,576.00
2023-06-22T05:20:00.552Z,576.00
2023-06-22T05:21:00.916Z,577.00
2023-06-22T05:22:00.544Z,576.00
2023-06-22T05:23:00.524Z,575.00
2023-06-22T05:24:00.519Z,576.00
2023-06-22T05:25:00.527Z,577.00
2023-06-22T05:26:00.656Z,577.00
2023-06-22T05:27:00.511Z,577.00
2023-06-22T05:28:00.507Z,578.00
2023-06-22T05:29:00.643Z,577.00
2023-06-22T05:30:00.500Z,577.00
2023-06-22T05:31:00.503Z,575.00
2023-06-22T05:32:00.496Z,576.00
2023-06-22T05:33:00.530Z,574.00
2023-06-22T05:34:00.673Z,577.00
2023-06-22T05:35:00.522Z,577.00
2023-06-22T05:36:00.469Z,578.00
2023-06-22T05:37:00.734Z,579.00
2023-06-22T05:38:00.432Z,577.00
2023-06-22T05:39:00.416Z,576.00
2023-06-22T05:40:00.457Z,576.00
2023-06-22T05:41:00.647Z,576.00
2023-06-22T05:42:00.406Z,573.00
2023-06-22T05:43:00.394Z,575.00
2023-06-22T05:44:00.389Z,576.00
2023-06-22T05:45:00.661Z,576.00
2023-06-22T05:46:00.376Z,573.00
2023-06-22T05:47:00.373Z,574.00
2023-06-22T05:48:00.687Z,574.00
2023-06-22T05:49:00.612Z,574.00
2023-06-22T05:50:00.671Z,575.00
2023-06-22T05:51:00.396Z,575.00
2023-06-22T05:52:00.346Z,575.00
2023-06-22T05:53:00.346Z,576.00
2023-06-22T05:54:00.324Z,572.00
2023-06-22T05:55:00.882Z,572.00
2023-06-22T05:56:00.651Z,572.00
2023-06-22T05:57:00.699Z,574.00
2023-06-22T05:58:00.304Z,575.00
2023-06-22T05:59:00.292Z,573.00
2023-06-22T06:00:00.300Z,571.00
2023-06-22T06:01:00.645Z,572.00
2023-06-22T06:02:00.315Z,573.00
2023-06-22T06:03:00.289Z,573.00
2023-06-22T06:04:00.303Z,571.00
2023-06-22T06:05:03.496Z,569.00
2023-06-22T06:06:00.684Z,570.00
2023-06-22T06:07:00.241Z,573.00
2023-06-22T06:08:00.386Z,571.00
2023-06-22T06:09:00.388Z,572.00
2023-06-22T06:10:01.285Z,572.00
2023-06-22T06:11:08.260Z,573.00
2023-06-22T06:12:03.929Z,571.00
2023-06-22T06:13:01.497Z,572.00
2023-06-22T06:14:04.003Z,571.00
2023-06-22T06:15:00.989Z,568.00
2023-06-22T06:16:00.592Z,569.00
2023-06-22T06:17:00.677Z,570.00
2023-06-22T06:18:00.627Z,568.00
2023-06-22T06:19:00.824Z,570.00
2023-06-22T06:20:00.418Z,571.00
2023-06-22T06:21:16.296Z,570.00
2023-06-22T06:22:00.246Z,569.00
2023-06-22T06:23:00.151Z,569.00
2023-06-22T06:24:00.179Z,568.00
2023-06-22T06:25:00.239Z,570.00
2023-06-22T06:26:00.131Z,570.00
2023-06-22T06:27:00.310Z,571.00
2023-06-22T06:28:00.457Z,572.00
2023-06-22T06:29:00.102Z,573.00
2023-06-22T06:30:01.402Z,573.00
2023-06-22T06:31:00.066Z,570.00
2023-06-22T06:32:00.142Z,571.00
2023-06-22T06:33:00.059Z,570.00
2023-06-22T06:34:00.044Z,571.00
2023-06-22T06:35:00.553Z,572.00
2023-06-22T06:36:00.045Z,573.00
2023-06-22T06:37:00.193Z,575.00
2023-06-22T06:38:00.028Z,571.00
2023-06-22T06:39:00.051Z,567.00
2023-06-22T06:40:00.039Z,565.00
2023-06-22T06:41:00.176Z,568.00
2023-06-22T06:42:00.033Z,571.00
2023-06-22T06:43:00.668Z,571.00
2023-06-22T06:43:59.984Z,571.00
2023-06-22T06:44:59.980Z,571.00
2023-06-22T06:46:00.014Z,570.00
2023-06-22T06:46:59.970Z,572.00
2023-06-22T06:48:00.189Z,576.00
2023-06-22T06:48:59.993Z,578.00
2023-06-22T06:49:59.983Z,580.00
2023-06-22T06:50:59.987Z,577.00
2023-06-22T06:52:01.196Z,575.00
2023-06-22T06:53:00.094Z,574.00
2023-06-22T06:54:00.005Z,575.00
2023-06-22T06:55:00.012Z,579.00
2023-06-22T06:56:00.189Z,577.00
2023-06-22T06:57:01.200Z,577.00
2023-06-22T06:58:00.092Z,576.00
2023-06-22T06:59:00.132Z,576.00
2023-06-22T07:00:00.128Z,577.00
2023-06-22T07:01:00.265Z,574.00
2023-06-22T07:02:00.674Z,575.00
2023-06-22T07:03:00.798Z,574.00
2023-06-22T07:04:00.327Z,574.00
2023-06-22T07:05:00.507Z,572.00
2023-06-22T07:06:00.635Z,570.00
2023-06-22T07:07:00.313Z,569.00
2023-06-22T07:08:00.872Z,571.00
2023-06-22T07:09:00.756Z,570.00
2023-06-22T07:10:00.375Z,570.00
2023-06-22T07:11:00.675Z,569.00
2023-06-22T07:12:00.797Z,569.00
2023-06-22T07:13:00.681Z,566.00
2023-06-22T07:14:00.499Z,565.00
2023-06-22T07:15:01.782Z,565.00
2023-06-22T07:16:00.941Z,567.00
2023-06-22T07:17:00.576Z,565.00
2023-06-22T07:18:00.879Z,564.00
2023-06-22T07:19:00.925Z,567.00
2023-06-22T07:20:00.573Z,567.00
2023-06-22T07:21:00.686Z,569.00
2023-06-22T07:22:00.588Z,571.00
2023-06-22T07:23:00.601Z,571.00
2023-06-22T07:24:00.593Z,571.00
2023-06-22T07:25:00.622Z,571.00
2023-06-22T07:26:00.684Z,572.00
2023-06-22T07:27:00.613Z,573.00
2023-06-22T07:28:00.630Z,573.00
2023-06-22T07:29:00.683Z,574.00
2023-06-22T07:30:00.612Z,576.00
2023-06-22T07:31:00.719Z,575.00
2023-06-22T07:32:00.633Z,575.00
2023-06-22T07:33:00.634Z,575.00
2023-06-22T07:34:00.687Z,573.00
2023-06-22T07:35:00.625Z,572.00
2023-06-22T07:36:00.704Z,575.00
2023-06-22T07:37:00.604Z,575.00
2023-06-22T07:38:04.210Z,574.00
2023-06-22T07:39:00.710Z,577.00
2023-06-22T07:40:00.623Z,574.00
2023-06-22T07:41:00.737Z,575.00
2023-06-22T07:42:00.601Z,576.00
2023-06-22T07:43:00.621Z,575.00
2023-06-22T07:44:00.564Z,573.00
2023-06-22T07:45:00.558Z,575.00
2023-06-22T07:46:01.200Z,574.00
2023-06-22T07:47:00.552Z,573.00
2023-06-22T07:48:00.615Z,572.00
2023-06-22T07:49:00.533Z,573.00
2023-06-22T07:50:00.539Z,572.00
2023-06-22T07:51:00.721Z,572.00
2023-06-22T07:52:00.525Z,575.00
2023-06-22T07:53:01.496Z,575.00
2023-06-22T07:54:00.727Z,575.00
2023-06-22T07:55:00.511Z,575.00
2023-06-22T07:56:00.706Z,574.00
2023-06-22T07:57:00.521Z,573.00
2023-06-22T07:58:00.507Z,573.00
2023-06-22T07:59:00.474Z,572.00
2023-06-22T08:00:00.469Z,571.00
2023-06-22T08:01:00.721Z,572.00
2023-06-22T08:02:00.486Z,571.00
2023-06-22T08:03:00.615Z,571.00
2023-06-22T08:04:00.587Z,569.00
2023-06-22T08:05:10.705Z,568.00
2023-06-22T08:06:00.427Z,570.00
2023-06-22T08:07:00.452Z,570.00
2023-06-22T08:08:00.455Z,569.00
2023-06-22T08:09:00.413Z,568.00
2023-06-22T08:10:00.399Z,568.00
2023-06-22T08:11:00.714Z,569.00
2023-06-22T08:12:00.377Z,567.00
2023-06-22T08:13:00.416Z,568.00
2023-06-22T08:14:00.387Z,569.00
2023-06-22T08:15:00.722Z,567.00
2023-06-22T08:16:00.416Z,567.00
2023-06-22T08:17:00.337Z,566.00
2023-06-22T08:18:00.731Z,568.00
2023-06-22T08:19:00.365Z,568.00
2023-06-22T08:20:00.316Z,567.00
2023-06-22T08:21:00.972Z,566.00
2023-06-22T08:22:00.330Z,566.00
2023-06-22T08:23:00.349Z,568.00
2023-06-22T08:24:00.363Z,569.00
2023-06-22T08:25:00.405Z,573.00
2023-06-22T08:26:00.725Z,576.00
2023-06-22T08:27:00.388Z,575.00
2023-06-22T08:28:00.449Z,573.00
2023-06-22T08:29:00.417Z,569.00
2023-06-22T08:30:00.410Z,567.00
2023-06-22T08:31:00.735Z,567.00
2023-06-22T08:32:00.445Z,568.00
2023-06-22T08:33:01.440Z,568.00
2023-06-22T08:34:00.451Z,565.00
2023-06-22T08:35:00.395Z,566.00
2023-06-22T08:36:00.404Z,566.00
2023-06-22T08:37:00.714Z,566.00
2023-06-22T08:38:00.463Z,568.00
2023-06-22T08:39:00.736Z,567.00
2023-06-22T08:40:00.548Z,565.00
2023-06-22T08:41:00.501Z,565.00
2023-06-22T08:42:00.715Z,564.00
2023-06-22T08:43:00.567Z,566.00
2023-06-22T08:44:00.595Z,568.00
2023-06-22T08:45:00.785Z,570.00
2023-06-22T08:46:00.583Z,571.00
2023-06-22T08:47:00.727Z,570.00
2023-06-22T08:48:00.672Z,571.00
2023-06-22T08:49:00.742Z,573.00
2023-06-22T08:50:00.667Z,572.00
2023-06-22T08:51:00.663Z,572.00
2023-06-22T08:52:00.678Z,571.00
2023-06-22T08:53:00.680Z,572.00
2023-06-22T08:54:00.721Z,574.00
2023-06-22T08:55:00.739Z,578.00
2023-06-22T08:56:00.769Z,575.00
2023-06-22T08:57:00.822Z,574.00
2023-06-22T08:58:01.110Z,573.00
2023-06-22T08:59:00.926Z,575.00
2023-06-22T09:00:00.987Z,576.00
2023-06-22T09:01:01.060Z,575.00
2023-06-22T09:02:01.073Z,576.00
2023-06-22T09:03:01.569Z,578.00
2023-06-22T09:04:01.408Z,578.00
2023-06-22T09:05:01.479Z,578.00
2023-06-22T09:06:01.356Z,577.00
2023-06-22T09:07:01.401Z,576.00
2023-06-22T09:08:01.483Z,573.00
2023-06-22T09:09:01.525Z,572.00
2023-06-22T09:10:04.261Z,573.00
2023-06-22T09:11:01.594Z,577.00
2023-06-22T09:12:01.726Z,578.00
2023-06-22T09:13:01.591Z,578.00
2023-06-22T09:14:01.560Z,575.00
2023-06-22T09:15:01.567Z,574.00
2023-06-22T09:16:01.544Z,575.00
2023-06-22T09:17:01.792Z,575.00
2023-06-22T09:18:01.610Z,574.00
2023-06-22T09:19:01.518Z,575.00
2023-06-22T09:20:01.736Z,575.00
2023-06-22T09:21:01.509Z,577.00
2023-06-22T09:22:01.727Z,578.00
2023-06-22T09:23:01.499Z,577.00
2023-06-22T09:24:01.506Z,579.00
2023-06-22T09:25:01.542Z,579.00
2023-06-22T09:26:01.732Z,576.00
2023-06-22T09:27:01.732Z,576.00
2023-06-22T09:28:01.464Z,574.00
2023-06-22T09:29:01.460Z,574.00
2023-06-22T09:30:01.468Z,572.00
2023-06-22T09:31:01.501Z,574.00
2023-06-22T09:32:02.422Z,574.00
2023-06-22T09:33:01.601Z,575.00
2023-06-22T09:34:01.566Z,573.00
2023-06-22T09:35:01.643Z,573.00
2023-06-22T09:36:01.678Z,573.00
2023-06-22T09:37:01.860Z,571.00
2023-06-22T09:38:01.800Z,569.00
2023-06-22T09:39:01.847Z,568.00
2023-06-22T09:40:01.906Z,569.00
2023-06-22T09:41:02.002Z,570.00
2023-06-22T09:42:02.024Z,573.00
2023-06-22T09:43:02.066Z,575.00
2023-06-22T09:44:02.140Z,577.00
2023-06-22T09:45:02.194Z,575.00
2023-06-22T09:46:02.257Z,576.00
2023-06-22T09:47:02.733Z,578.00
2023-06-22T09:48:02.491Z,575.00
2023-06-22T09:49:02.674Z,577.00
2023-06-22T09:50:02.489Z,577.00
2023-06-22T09:51:02.568Z,574.00
2023-06-22T09:52:02.741Z,575.00
2023-06-22T09:53:02.663Z,574.00
2023-06-22T09:54:02.732Z,572.00
2023-06-22T09:55:02.797Z,571.00
2023-06-22T09:56:02.874Z,573.00
2023-06-22T09:57:03.239Z,574.00
2023-06-22T09:58:02.985Z,575.00
2023-06-22T09:59:13.926Z,575.00
2023-06-22T10:00:03.058Z,574.00
2023-06-22T10:01:03.243Z,571.00
2023-06-22T10:02:03.082Z,572.00
2023-06-22T10:03:03.398Z,577.00
2023-06-22T10:04:03.204Z,576.00
2023-06-22T10:05:04.656Z,576.00
2023-06-22T10:06:02.976Z,576.00
2023-06-22T10:07:03.014Z,575.00
2023-06-22T10:08:03.011Z,575.00
2023-06-22T10:09:02.954Z,574.00
2023-06-22T10:10:02.951Z,574.00
2023-06-22T10:11:02.943Z,573.00
2023-06-22T10:12:02.949Z,572.00
2023-06-22T10:13:02.955Z,571.00
2023-06-22T10:14:02.916Z,573.00
2023-06-22T10:15:02.914Z,572.00
2023-06-22T10:16:03.246Z,570.00
2023-06-22T10:17:02.902Z,571.00
2023-06-22T10:18:02.926Z,569.00
2023-06-22T10:19:03.247Z,567.00
2023-06-22T10:20:02.873Z,567.00
2023-06-22T10:21:02.892Z,567.00
2023-06-22T10:22:02.862Z,567.00
2023-06-22T10:23:02.858Z,569.00
2023-06-22T10:24:03.259Z,567.00
2023-06-22T10:25:02.842Z,567.00
2023-06-22T10:26:03.902Z,567.00
2023-06-22T10:27:02.830Z,567.00
2023-06-22T10:28:02.818Z,565.00
2023-06-22T10:29:15.733Z,565.00
2023-06-22T10:30:02.814Z,565.00
2023-06-22T10:31:03.276Z,565.00
2023-06-22T10:32:03.259Z,566.00
2023-06-22T10:33:02.845Z,565.00
2023-06-22T10:34:03.824Z,565.00
2023-06-22T10:35:02.768Z,565.00
2023-06-22T10:36:02.771Z,565.00
2023-06-22T10:37:02.784Z,567.00
2023-06-22T10:38:02.763Z,566.00
2023-06-22T10:39:02.763Z,565.00
2023-06-22T10:40:02.745Z,567.00
2023-06-22T10:41:02.745Z,565.00
2023-06-22T10:42:02.761Z,564.00
2023-06-22T10:43:02.814Z,565.00
2023-06-22T10:44:02.861Z,567.00
2023-06-22T10:45:02.921Z,568.00
2023-06-22T10:46:02.970Z,566.00
2023-06-22T10:47:03.254Z,565.00
2023-06-22T10:48:03.141Z,567.00
2023-06-22T10:49:03.110Z,568.00
2023-06-22T10:50:03.187Z,564.00
2023-06-22T10:51:03.214Z,563.00
2023-06-22T10:52:03.760Z,562.00
2023-06-22T10:53:03.351Z,564.00
2023-06-22T10:54:03.376Z,565.00
2023-06-22T10:55:03.426Z,568.00
2023-06-22T10:56:03.473Z,568.00
2023-06-22T10:57:03.521Z,568.00
2023-06-22T10:58:04.521Z,565.00
2023-06-22T10:59:03.547Z,568.00
2023-06-22T11:00:03.770Z,569.00
2023-06-22T11:01:03.551Z,569.00
2023-06-22T11:02:03.991Z,571.00
2023-06-22T11:03:03.820Z,570.00
2023-06-22T11:04:03.757Z,569.00
2023-06-22T11:05:03.769Z,572.00
2023-06-22T11:06:03.522Z,573.00
2023-06-22T11:07:03.778Z,573.00
2023-06-22T11:08:03.504Z,572.00
2023-06-22T11:09:05.655Z,573.00
2023-06-22T11:10:03.499Z,572.00
2023-06-22T11:11:03.473Z,571.00
2023-06-22T11:12:03.464Z,572.00
2023-06-22T11:13:04.262Z,572.00
2023-06-22T11:14:03.451Z,574.00
2023-06-22T11:15:03.474Z,576.00
2023-06-22T11:16:03.442Z,574.00
2023-06-22T11:17:03.852Z,573.00
2023-06-22T11:18:03.466Z,573.00
2023-06-22T11:19:03.416Z,573.00
2023-06-22T11:20:03.405Z,574.00
2023-06-22T11:21:03.401Z,574.00
2023-06-22T11:22:03.393Z,573.00
2023-06-22T11:23:03.388Z,574.00
2023-06-22T11:24:03.388Z,574.00
2023-06-22T11:25:03.401Z,571.00
2023-06-22T11:26:03.365Z,569.00
2023-06-22T11:27:03.379Z,571.00
2023-06-22T11:28:03.431Z,570.00
2023-06-22T11:29:03.471Z,570.00
2023-06-22T11:30:03.511Z,568.00
2023-06-22T11:31:11.045Z,569.00
2023-06-22T11:32:03.639Z,569.00
2023-06-22T11:33:03.591Z,566.00
2023-06-22T11:34:03.537Z,566.00
2023-06-22T11:35:03.535Z,566.00
2023-06-22T11:36:03.558Z,567.00
2023-06-22T11:37:03.532Z,570.00
2023-06-22T11:38:03.797Z,569.00
2023-06-22T11:41:02.549Z,569.00
2023-06-22T11:42:03.484Z,570.00
2023-06-22T11:43:03.470Z,570.00
2023-06-22T11:44:03.497Z,571.00
2023-06-22T11:45:03.471Z,573.00
2023-06-22T11:46:03.449Z,570.00
2023-06-22T11:47:03.455Z,572.00
2023-06-22T11:48:03.477Z,572.00
2023-06-22T11:49:03.428Z,572.00
2023-06-22T11:50:03.429Z,575.00
2023-06-22T11:51:03.421Z,576.00
2023-06-22T11:52:03.412Z,575.00
2023-06-22T11:53:03.400Z,575.00
2023-06-22T11:54:03.391Z,575.00
2023-06-22T11:55:03.387Z,574.00
2023-06-22T11:56:03.391Z,572.00
2023-06-22T11:57:03.417Z,572.00
2023-06-22T11:58:03.371Z,572.00
2023-06-22T11:59:03.365Z,574.00
2023-06-22T12:00:03.795Z,574.00
2023-06-22T12:01:03.360Z,572.00
2023-06-22T12:02:03.783Z,573.00
2023-06-22T12:03:03.389Z,572.00
2023-06-22T12:04:03.376Z,569.00
2023-06-22T12:05:03.333Z,572.00
2023-06-22T12:06:03.368Z,569.00
2023-06-22T12:07:03.321Z,571.00
2023-06-22T12:08:03.310Z,572.00
2023-06-22T12:09:03.295Z,573.00
2023-06-22T12:10:03.298Z,573.00
2023-06-22T12:11:03.295Z,573.00
2023-06-22T12:12:03.285Z,574.00
2023-06-22T12:13:03.331Z,574.00
2023-06-22T12:14:03.276Z,573.00
2023-06-22T12:15:03.265Z,573.00
2023-06-22T12:16:03.298Z,573.00
2023-06-22T12:17:03.262Z,573.00
2023-06-22T12:18:03.347Z,572.00
2023-06-22T12:19:03.328Z,572.00
2023-06-22T12:20:03.349Z,572.00
2023-06-22T12:21:03.393Z,572.00
2023-06-22T12:22:03.420Z,573.00
2023-06-22T12:23:03.433Z,574.00
2023-06-22T12:24:03.479Z,575.00
2023-06-22T12:25:03.481Z,578.00
2023-06-22T12:26:03.515Z,576.00
2023-06-22T12:27:03.543Z,575.00
2023-06-22T12:28:03.572Z,575.00
2023-06-22T12:29:03.625Z,574.00
2023-06-22T12:30:03.629Z,573.00
2023-06-22T12:31:03.675Z,572.00